sensor_id;sensor_type;location;lat;lon;timestamp;pressure;altitude;pressure_sealevel;temperature
85122;BMP280;75480;52.260;20.916;2024-03-02T00:00:20;100012.25;;;8.80
85122;BMP280;75480;52.260;20.916;2024-03-02T00:02:11;100011.78;;;8.81
85122;BMP280;75480;52.260;20.916;2024-03-02T00:03:42;99996.06;;;8.82
85122;BMP280;75480;52.260;20.916;2024-03-02T00:05:18;100003.16;;;8.88
85122;BMP280;75480;52.260;20.916;2024-03-02T00:06:52;99997.56;;;8.83
85122;BMP280;75480;52.260;20.916;2024-03-02T00:08:24;100008.00;;;8.78
85122;BMP280;75480;52.260;20.916;2024-03-02T00:09:59;100004.66;;;8.74
85122;BMP280;75480;52.260;20.916;2024-03-02T00:11:30;99994.25;;;8.78
85122;BMP280;75480;52.260;20.916;2024-03-02T00:13:05;99988.69;;;8.73
85122;BMP280;75480;52.260;20.916;2024-03-02T00:14:36;99984.19;;;8.75
85122;BMP280;75480;52.260;20.916;2024-03-02T00:16:06;99996.53;;;8.80
85122;BMP280;75480;52.260;20.916;2024-03-02T00:17:37;99992.38;;;8.70
85122;BMP280;75480;52.260;20.916;2024-03-02T00:19:08;99990.88;;;8.69
85122;BMP280;75480;52.260;20.916;2024-03-02T00:20:40;99987.38;;;8.68
85122;BMP280;75480;52.260;20.916;2024-03-02T00:22:11;99986.13;;;8.69
85122;BMP280;75480;52.260;20.916;2024-03-02T00:23:42;99992.84;;;8.68
85122;BMP280;75480;52.260;20.916;2024-03-02T00:25:13;99988.13;;;8.69
85122;BMP280;75480;52.260;20.916;2024-03-02T00:26:45;99974.59;;;8.51
85122;BMP280;75480;52.260;20.916;2024-03-02T00:28:18;99980.00;;;8.60
85122;BMP280;75480;52.260;20.916;2024-03-02T00:29:49;99988.41;;;8.56
85122;BMP280;75480;52.260;20.916;2024-03-02T00:31:20;99993.25;;;8.61
85122;BMP280;75480;52.260;20.916;2024-03-02T00:32:51;99982.44;;;8.58
85122;BMP280;75480;52.260;20.916;2024-03-02T00:34:23;99993.88;;;8.56
85122;BMP280;75480;52.260;20.916;2024-03-02T00:35:54;99990.22;;;8.59
85122;BMP280;75480;52.260;20.916;2024-03-02T00:37:25;99981.50;;;8.61
85122;BMP280;75480;52.260;20.916;2024-03-02T00:38:56;99991.72;;;8.60
85122;BMP280;75480;52.260;20.916;2024-03-02T00:40:29;99986.88;;;8.55
85122;BMP280;75480;52.260;20.916;2024-03-02T00:42:00;99983.38;;;8.55
85122;BMP280;75480;52.260;20.916;2024-03-02T00:45:07;99985.47;;;8.60
85122;BMP280;75480;52.260;20.916;2024-03-02T00:46:39;99992.00;;;8.62
85122;BMP280;75480;52.260;20.916;2024-03-02T00:48:10;99988.03;;;8.63
85122;BMP280;75480;52.260;20.916;2024-03-02T00:49:42;99990.56;;;8.67
85122;BMP280;75480;52.260;20.916;2024-03-02T00:51:13;100006.28;;;8.66
85122;BMP280;75480;52.260;20.916;2024-03-02T00:52:43;99999.88;;;8.69
85122;BMP280;75480;52.260;20.916;2024-03-02T00:54:15;99995.66;;;8.74
85122;BMP280;75480;52.260;20.916;2024-03-02T00:55:46;99993.41;;;8.72
85122;BMP280;75480;52.260;20.916;2024-03-02T00:57:18;100000.91;;;8.72
85122;BMP280;75480;52.260;20.916;2024-03-02T00:58:49;99983.19;;;8.58
85122;BMP280;75480;52.260;20.916;2024-03-02T01:00:20;100000.34;;;8.68
85122;BMP280;75480;52.260;20.916;2024-03-02T01:01:51;99998.63;;;8.70
85122;BMP280;75480;52.260;20.916;2024-03-02T01:03:22;99993.78;;;8.65
85122;BMP280;75480;52.260;20.916;2024-03-02T01:04:53;99983.28;;;8.64
85122;BMP280;75480;52.260;20.916;2024-03-02T01:06:24;99999.88;;;8.69
85122;BMP280;75480;52.260;20.916;2024-03-02T01:07:54;99972.78;;;8.62
85122;BMP280;75480;52.260;20.916;2024-03-02T01:09:25;99986.88;;;8.55
85122;BMP280;75480;52.260;20.916;2024-03-02T01:10:56;99982.38;;;8.52
85122;BMP280;75480;52.260;20.916;2024-03-02T01:12:27;99978.53;;;8.64
85122;BMP280;75480;52.260;20.916;2024-03-02T01:13:58;99978.38;;;8.68
85122;BMP280;75480;52.260;20.916;2024-03-02T01:15:28;99977.03;;;8.63
85122;BMP280;75480;52.260;20.916;2024-03-02T01:16:59;99980.91;;;8.57
85122;BMP280;75480;52.260;20.916;2024-03-02T01:18:30;99976.88;;;8.52
85122;BMP280;75480;52.260;20.916;2024-03-02T01:20:01;99987.47;;;8.44
85122;BMP280;75480;52.260;20.916;2024-03-02T01:21:32;99965.34;;;8.33
85122;BMP280;75480;52.260;20.916;2024-03-02T01:23:03;99992.97;;;8.44
85122;BMP280;75480;52.260;20.916;2024-03-02T01:24:33;99964.28;;;8.31
85122;BMP280;75480;52.260;20.916;2024-03-02T01:26:04;99980.84;;;8.36
85122;BMP280;75480;52.260;20.916;2024-03-02T01:27:35;99989.84;;;8.37
85122;BMP280;75480;52.260;20.916;2024-03-02T01:29:05;99984.34;;;8.37
85122;BMP280;75480;52.260;20.916;2024-03-02T01:30:36;99976.59;;;8.35
85122;BMP280;75480;52.260;20.916;2024-03-02T01:32:07;99973.94;;;8.41
85122;BMP280;75480;52.260;20.916;2024-03-02T01:33:37;99979.31;;;8.35
85122;BMP280;75480;52.260;20.916;2024-03-02T01:35:08;99977.63;;;8.38
85122;BMP280;75480;52.260;20.916;2024-03-02T01:36:39;99971.75;;;8.30
85122;BMP280;75480;52.260;20.916;2024-03-02T01:38:10;99976.59;;;8.35
85122;BMP280;75480;52.260;20.916;2024-03-02T01:39:40;99975.81;;;8.35
85122;BMP280;75480;52.260;20.916;2024-03-02T01:41:11;99977.25;;;8.30
85122;BMP280;75480;52.260;20.916;2024-03-02T01:42:43;99969.97;;;8.27
85122;BMP280;75480;52.260;20.916;2024-03-02T01:44:13;99967.81;;;8.31
85122;BMP280;75480;52.260;20.916;2024-03-02T01:45:44;99967.97;;;8.28
85122;BMP280;75480;52.260;20.916;2024-03-02T01:47:15;99960.50;;;8.28
85122;BMP280;75480;52.260;20.916;2024-03-02T01:48:45;99960.97;;;8.27
85122;BMP280;75480;52.260;20.916;2024-03-02T01:50:24;99966.94;;;8.25
85122;BMP280;75480;52.260;20.916;2024-03-02T01:51:56;99964.84;;;8.20
85122;BMP280;75480;52.260;20.916;2024-03-02T01:53:26;99957.75;;;8.13
85122;BMP280;75480;52.260;20.916;2024-03-02T01:54:58;99958.88;;;8.22
85122;BMP280;75480;52.260;20.916;2024-03-02T01:56:29;99954.06;;;8.17
85122;BMP280;75480;52.260;20.916;2024-03-02T01:58:00;99934.94;;;8.07
85122;BMP280;75480;52.260;20.916;2024-03-02T01:59:31;99961.72;;;8.27
85122;BMP280;75480;52.260;20.916;2024-03-02T02:01:01;99959.91;;;8.24
85122;BMP280;75480;52.260;20.916;2024-03-02T02:02:32;99938.53;;;8.13
85122;BMP280;75480;52.260;20.916;2024-03-02T02:04:03;99957.38;;;8.21
85122;BMP280;75480;52.260;20.916;2024-03-02T02:05:34;99945.81;;;8.17
85122;BMP280;75480;52.260;20.916;2024-03-02T02:07:05;99950.47;;;8.10
85122;BMP280;75480;52.260;20.916;2024-03-02T02:08:37;99956.31;;;8.18
85122;BMP280;75480;52.260;20.916;2024-03-02T02:10:09;99958.50;;;8.14
85122;BMP280;75480;52.260;20.916;2024-03-02T02:11:39;99960.97;;;8.12
85122;BMP280;75480;52.260;20.916;2024-03-02T02:13:10;99962.47;;;8.13
85122;BMP280;75480;52.260;20.916;2024-03-02T02:14:47;99955.56;;;8.18
85122;BMP280;75480;52.260;20.916;2024-03-02T02:16:19;99970.25;;;8.14
85122;BMP280;75480;52.260;20.916;2024-03-02T02:17:49;99959.25;;;8.14
85122;BMP280;75480;52.260;20.916;2024-03-02T02:19:20;99930.59;;;8.01
85122;BMP280;75480;52.260;20.916;2024-03-02T02:20:51;99948.75;;;8.13
85122;BMP280;75480;52.260;20.916;2024-03-02T02:22:21;99952.34;;;8.04
85122;BMP280;75480;52.260;20.916;2024-03-02T02:23:52;99950.47;;;7.96
85122;BMP280;75480;52.260;20.916;2024-03-02T02:25:23;99941.28;;;7.99
85122;BMP280;75480;52.260;20.916;2024-03-02T02:26:54;99945.25;;;7.98
85122;BMP280;75480;52.260;20.916;2024-03-02T02:28:24;99939.75;;;7.98
85122;BMP280;75480;52.260;20.916;2024-03-02T02:29:55;99951.50;;;7.98
85122;BMP280;75480;52.260;20.916;2024-03-02T02:31:26;99951.03;;;8.00
85122;BMP280;75480;52.260;20.916;2024-03-02T02:32:57;99949.22;;;7.97
85122;BMP280;75480;52.260;20.916;2024-03-02T02:34:29;99948.47;;;7.96
85122;BMP280;75480;52.260;20.916;2024-03-02T02:36:00;99947.72;;;7.96
85122;BMP280;75480;52.260;20.916;2024-03-02T02:37:30;99943.25;;;7.98
85122;BMP280;75480;52.260;20.916;2024-03-02T02:39:02;99946.78;;;7.99
85122;BMP280;75480;52.260;20.916;2024-03-02T02:40:37;99946.78;;;7.99
85122;BMP280;75480;52.260;20.916;2024-03-02T02:42:08;99939.47;;;7.96
85122;BMP280;75480;52.260;20.916;2024-03-02T02:43:38;99937.78;;;7.98
85122;BMP280;75480;52.260;20.916;2024-03-02T02:45:10;99939.47;;;7.96
85122;BMP280;75480;52.260;20.916;2024-03-02T02:46:44;99933.59;;;7.88
85122;BMP280;75480;52.260;20.916;2024-03-02T02:48:15;99940.41;;;7.93
85122;BMP280;75480;52.260;20.916;2024-03-02T02:49:46;99926.91;;;7.89
85122;BMP280;75480;52.260;20.916;2024-03-02T02:51:17;99923.09;;;7.87
85122;BMP280;75480;52.260;20.916;2024-03-02T02:52:47;99934.16;;;7.92
85122;BMP280;75480;52.260;20.916;2024-03-02T02:54:18;99928.66;;;7.92
85122;BMP280;75480;52.260;20.916;2024-03-02T02:55:49;99931.16;;;7.90
85122;BMP280;75480;52.260;20.916;2024-03-02T02:57:19;99930.88;;;7.88
85122;BMP280;75480;52.260;20.916;2024-03-02T02:58:50;99931.63;;;7.89
85122;BMP280;75480;52.260;20.916;2024-03-02T03:00:21;99939.84;;;7.89
85122;BMP280;75480;52.260;20.916;2024-03-02T03:01:53;99935.59;;;7.88
85122;BMP280;75480;52.260;20.916;2024-03-02T03:03:24;99932.56;;;7.86
85122;BMP280;75480;52.260;20.916;2024-03-02T03:04:57;99936.22;;;7.82
85122;BMP280;75480;52.260;20.916;2024-03-02T03:06:28;99921.75;;;7.82
85122;BMP280;75480;52.260;20.916;2024-03-02T03:07:59;99928.47;;;7.81
85122;BMP280;75480;52.260;20.916;2024-03-02T03:09:29;99933.47;;;7.82
85122;BMP280;75480;52.260;20.916;2024-03-02T03:11:00;99925.25;;;7.82
85122;BMP280;75480;52.260;20.916;2024-03-02T03:12:31;99928.97;;;7.79
85122;BMP280;75480;52.260;20.916;2024-03-02T03:14:02;99927.63;;;7.75
85122;BMP280;75480;52.260;20.916;2024-03-02T03:15:32;99924.72;;;7.78
85122;BMP280;75480;52.260;20.916;2024-03-02T03:17:03;99912.97;;;7.78
85122;BMP280;75480;52.260;20.916;2024-03-02T03:18:34;99915.59;;;7.72
85122;BMP280;75480;52.260;20.916;2024-03-02T03:20:05;99920.25;;;7.81
85122;BMP280;75480;52.260;20.916;2024-03-02T03:21:40;99921.47;;;7.80
85122;BMP280;75480;52.260;20.916;2024-03-02T03:23:10;99927.44;;;7.78
85122;BMP280;75480;52.260;20.916;2024-03-02T03:24:45;99933.97;;;7.81
85122;BMP280;75480;52.260;20.916;2024-03-02T03:26:16;99924.22;;;7.80
85122;BMP280;75480;52.260;20.916;2024-03-02T03:27:46;99927.25;;;7.82
85122;BMP280;75480;52.260;20.916;2024-03-02T03:29:17;99927.06;;;7.86
85122;BMP280;75480;52.260;20.916;2024-03-02T03:30:48;99926.59;;;7.87
85122;BMP280;75480;52.260;20.916;2024-03-02T03:32:18;99925.53;;;7.85
85122;BMP280;75480;52.260;20.916;2024-03-02T03:33:49;99927.06;;;7.86
85122;BMP280;75480;52.260;20.916;2024-03-02T03:35:20;99913.22;;;7.80
85122;BMP280;75480;52.260;20.916;2024-03-02T03:36:50;99926.47;;;7.81
85122;BMP280;75480;52.260;20.916;2024-03-02T03:38:21;99914.22;;;7.77
85122;BMP280;75480;52.260;20.916;2024-03-02T03:39:51;99925.72;;;7.81
85122;BMP280;75480;52.260;20.916;2024-03-02T03:41:22;99911.00;;;7.78
85122;BMP280;75480;52.260;20.916;2024-03-02T03:42:53;99924.72;;;7.78
85122;BMP280;75480;52.260;20.916;2024-03-02T03:44:24;99922.53;;;7.68
85122;BMP280;75480;52.260;20.916;2024-03-02T03:45:55;99915.06;;;7.68
85122;BMP280;75480;52.260;20.916;2024-03-02T03:47:25;99925.47;;;7.79
85122;BMP280;75480;52.260;20.916;2024-03-02T03:48:56;99922.72;;;7.79
85122;BMP280;75480;52.260;20.916;2024-03-02T03:50:27;99922.97;;;7.81
85122;BMP280;75480;52.260;20.916;2024-03-02T03:51:57;99924.72;;;7.78
85122;BMP280;75480;52.260;20.916;2024-03-02T03:53:28;99916.75;;;7.80
85122;BMP280;75480;52.260;20.916;2024-03-02T03:54:59;99905.97;;;7.77
85122;BMP280;75480;52.260;20.916;2024-03-02T03:56:30;99909.06;;;7.85
85122;BMP280;75480;52.260;20.916;2024-03-02T03:58:01;99905.75;;;7.80
85122;BMP280;75480;52.260;20.916;2024-03-02T03:59:32;99913.22;;;7.80
85122;BMP280;75480;52.260;20.916;2024-03-02T04:01:02;99902.34;;;7.71
85122;BMP280;75480;52.260;20.916;2024-03-02T04:02:33;99914.75;;;7.81
85122;BMP280;75480;52.260;20.916;2024-03-02T04:04:04;99912.00;;;7.81
85122;BMP280;75480;52.260;20.916;2024-03-02T04:05:34;99912.75;;;7.81
85122;BMP280;75480;52.260;20.916;2024-03-02T04:07:05;99909.91;;;7.76
85122;BMP280;75480;52.260;20.916;2024-03-02T04:08:35;99916.81;;;7.71
85122;BMP280;75480;52.260;20.916;2024-03-02T04:10:10;99910.59;;;7.71
85122;BMP280;75480;52.260;20.916;2024-03-02T04:11:41;99915.50;;;7.81
85122;BMP280;75480;52.260;20.916;2024-03-02T04:13:11;99924.41;;;7.76
85122;BMP280;75480;52.260;20.916;2024-03-02T04:14:42;99918.47;;;7.78
85122;BMP280;75480;52.260;20.916;2024-03-02T04:16:13;99935.09;;;7.74
85122;BMP280;75480;52.260;20.916;2024-03-02T04:17:44;99929.78;;;7.71
85122;BMP280;75480;52.260;20.916;2024-03-02T04:19:14;99922.78;;;7.70
85122;BMP280;75480;52.260;20.916;2024-03-02T04:20:45;99916.63;;;7.60
85122;BMP280;75480;52.260;20.916;2024-03-02T04:22:15;99921.91;;;7.64
85122;BMP280;75480;52.260;20.916;2024-03-02T04:23:47;99920.22;;;7.66
85122;BMP280;75480;52.260;20.916;2024-03-02T04:25:18;99896.75;;;7.50
85122;BMP280;75480;52.260;20.916;2024-03-02T04:26:50;99929.78;;;7.71
85122;BMP280;75480;52.260;20.916;2024-03-02T04:28:20;99931.25;;;7.57
85122;BMP280;75480;52.260;20.916;2024-03-02T04:29:51;99927.59;;;7.60
85122;BMP280;75480;52.260;20.916;2024-03-02T04:31:22;99936.72;;;7.57
85122;BMP280;75480;52.260;20.916;2024-03-02T04:32:52;99938.25;;;7.58
85122;BMP280;75480;52.260;20.916;2024-03-02T04:34:23;99927.06;;;7.47
85122;BMP280;75480;52.260;20.916;2024-03-02T04:35:54;99929.06;;;7.46
85122;BMP280;75480;52.260;20.916;2024-03-02T04:37:24;99917.06;;;7.44
85122;BMP280;75480;52.260;20.916;2024-03-02T04:38:55;99925.00;;;7.42
85122;BMP280;75480;52.260;20.916;2024-03-02T04:40:26;99917.06;;;7.44
85122;BMP280;75480;52.260;20.916;2024-03-02T04:41:56;99918.09;;;7.46
85122;BMP280;75480;52.260;20.916;2024-03-02T04:43:27;99924.16;;;7.50
85122;BMP280;75480;52.260;20.916;2024-03-02T04:44:58;99928.16;;;7.49
85122;BMP280;75480;52.260;20.916;2024-03-02T04:46:29;99926.16;;;7.50
85122;BMP280;75480;52.260;20.916;2024-03-02T04:47:59;99900.97;;;7.37
85122;BMP280;75480;52.260;20.916;2024-03-02T04:49:30;99913.66;;;7.49
85122;BMP280;75480;52.260;20.916;2024-03-02T04:51:01;99923.72;;;7.52
85122;BMP280;75480;52.260;20.916;2024-03-02T04:52:32;99926.25;;;7.56
85122;BMP280;75480;52.260;20.916;2024-03-02T04:54:02;99926.84;;;7.60
85122;BMP280;75480;52.260;20.916;2024-03-02T04:55:33;99918.28;;;7.58
85122;BMP280;75480;52.260;20.916;2024-03-02T04:57:09;99924.66;;;7.64
85122;BMP280;75480;52.260;20.916;2024-03-02T04:58:40;99915.09;;;7.59
85122;BMP280;75480;52.260;20.916;2024-03-02T05:00:11;99919.47;;;7.66
85122;BMP280;75480;52.260;20.916;2024-03-02T05:01:43;99921.91;;;7.64
85122;BMP280;75480;52.260;20.916;2024-03-02T05:03:14;99917.19;;;7.64
85122;BMP280;75480;52.260;20.916;2024-03-02T05:04:44;99920.81;;;7.70
85122;BMP280;75480;52.260;20.916;2024-03-02T05:06:15;99929.22;;;7.67
85122;BMP280;75480;52.260;20.916;2024-03-02T05:07:46;99925.13;;;7.62
85122;BMP280;75480;52.260;20.916;2024-03-02T05:09:16;99921.72;;;7.53
85122;BMP280;75480;52.260;20.916;2024-03-02T05:10:47;99915.19;;;7.50
85122;BMP280;75480;52.260;20.916;2024-03-02T05:12:18;99933.25;;;7.57
85122;BMP280;75480;52.260;20.916;2024-03-02T05:14:24;99932.00;;;7.58
85122;BMP280;75480;52.260;20.916;2024-03-02T05:15:56;99944.06;;;7.60
85122;BMP280;75480;52.260;20.916;2024-03-02T05:17:26;99945.84;;;7.63
85122;BMP280;75480;52.260;20.916;2024-03-02T05:18:57;99925.84;;;7.48
85122;BMP280;75480;52.260;20.916;2024-03-02T05:20:28;99942.53;;;7.59
85122;BMP280;75480;52.260;20.916;2024-03-02T05:21:58;99945.84;;;7.63
85122;BMP280;75480;52.260;20.916;2024-03-02T05:23:29;99943.69;;;7.67
85122;BMP280;75480;52.260;20.916;2024-03-02T05:25:00;99947.84;;;7.63
85122;BMP280;75480;52.260;20.916;2024-03-02T05:26:31;99944.16;;;7.66
85122;BMP280;75480;52.260;20.916;2024-03-02T05:28:02;99946.97;;;7.57
85122;BMP280;75480;52.260;20.916;2024-03-02T05:29:33;99953.94;;;7.58
85122;BMP280;75480;52.260;20.916;2024-03-02T05:31:03;99954.56;;;7.62
85122;BMP280;75480;52.260;20.916;2024-03-02T05:32:34;99952.38;;;7.66
85122;BMP280;75480;52.260;20.916;2024-03-02T05:34:05;99958.06;;;7.62
85122;BMP280;75480;52.260;20.916;2024-03-02T05:35:35;99967.31;;;7.65
85122;BMP280;75480;52.260;20.916;2024-03-02T05:37:06;99960.16;;;7.67
85122;BMP280;75480;52.260;20.916;2024-03-02T05:38:37;99955.44;;;7.68
85122;BMP280;75480;52.260;20.916;2024-03-02T05:40:08;99946.31;;;7.62
85122;BMP280;75480;52.260;20.916;2024-03-02T05:41:39;99960.94;;;7.68
85122;BMP280;75480;52.260;20.916;2024-03-02T05:43:10;99952.56;;;7.62
85122;BMP280;75480;52.260;20.916;2024-03-02T05:44:40;99958.59;;;7.52
85122;BMP280;75480;52.260;20.916;2024-03-02T05:46:11;99967.97;;;7.60
85122;BMP280;75480;52.260;20.916;2024-03-02T05:47:42;99979.59;;;7.55
85122;BMP280;75480;52.260;20.916;2024-03-02T05:49:12;99968.91;;;7.57
85122;BMP280;75480;52.260;20.916;2024-03-02T05:50:43;99968.63;;;7.55
85122;BMP280;75480;52.260;20.916;2024-03-02T05:52:14;99976.97;;;7.60
85122;BMP280;75480;52.260;20.916;2024-03-02T05:53:44;99971.00;;;7.62
85122;BMP280;75480;52.260;20.916;2024-03-02T05:55:15;99972.53;;;7.63
85122;BMP280;75480;52.260;20.916;2024-03-02T05:56:46;99982.56;;;7.66
85122;BMP280;75480;52.260;20.916;2024-03-02T05:58:16;99978.00;;;7.63
85122;BMP280;75480;52.260;20.916;2024-03-02T06:00:03;99980.63;;;7.57
85122;BMP280;75480;52.260;20.916;2024-03-02T06:01:47;99973.34;;;7.54
85122;BMP280;75480;52.260;20.916;2024-03-02T06:03:20;99961.97;;;7.46
85122;BMP280;75480;52.260;20.916;2024-03-02T06:04:56;99971.84;;;7.53
85122;BMP280;75480;52.260;20.916;2024-03-02T06:06:27;99966.97;;;7.48
85122;BMP280;75480;52.260;20.916;2024-03-02T06:07:57;99972.59;;;7.54
85122;BMP280;75480;52.260;20.916;2024-03-02T06:09:28;99980.34;;;7.55
85122;BMP280;75480;52.260;20.916;2024-03-02T06:10:58;99985.56;;;7.53
85122;BMP280;75480;52.260;20.916;2024-03-02T06:12:31;99986.09;;;7.57
85122;BMP280;75480;52.260;20.916;2024-03-02T06:14:02;99986.41;;;7.59
85122;BMP280;75480;52.260;20.916;2024-03-02T06:15:33;99994.28;;;7.66
85122;BMP280;75480;52.260;20.916;2024-03-02T06:17:06;99986.63;;;7.70
85122;BMP280;75480;52.260;20.916;2024-03-02T06:18:37;99991.44;;;7.61
85122;BMP280;75480;52.260;20.916;2024-03-02T06:20:08;99985.94;;;7.61
85122;BMP280;75480;52.260;20.916;2024-03-02T06:21:39;99980.94;;;7.59
85122;BMP280;75480;52.260;20.916;2024-03-02T06:23:10;99983.69;;;7.59
85122;BMP280;75480;52.260;20.916;2024-03-02T06:24:41;99988.59;;;7.55
85122;BMP280;75480;52.260;20.916;2024-03-02T06:26:11;99973.34;;;7.54
85122;BMP280;75480;52.260;20.916;2024-03-02T06:27:42;99989.16;;;7.59
85122;BMP280;75480;52.260;20.916;2024-03-02T06:29:13;99978.00;;;7.63
85122;BMP280;75480;52.260;20.916;2024-03-02T06:30:44;99991.53;;;7.66
85122;BMP280;75480;52.260;20.916;2024-03-02T06:32:15;99986.63;;;7.70
85122;BMP280;75480;52.260;20.916;2024-03-02T06:33:46;99999.69;;;7.75
85122;BMP280;75480;52.260;20.916;2024-03-02T06:35:16;100009.09;;;7.83
85122;BMP280;75480;52.260;20.916;2024-03-02T06:36:47;99993.75;;;7.92
85122;BMP280;75480;52.260;20.916;2024-03-02T06:38:18;99998.16;;;7.98
85122;BMP280;75480;52.260;20.916;2024-03-02T06:39:48;99996.16;;;7.99
85122;BMP280;75480;52.260;20.916;2024-03-02T06:41:19;99991.31;;;7.94
85122;BMP280;75480;52.260;20.916;2024-03-02T06:42:50;100006.94;;;8.02
85122;BMP280;75480;52.260;20.916;2024-03-02T06:44:20;100007.69;;;8.03
85122;BMP280;75480;52.260;20.916;2024-03-02T06:45:52;99994.81;;;7.94
85122;BMP280;75480;52.260;20.916;2024-03-02T06:47:22;100012.41;;;8.02
85122;BMP280;75480;52.260;20.916;2024-03-02T06:48:53;99995.13;;;7.96
85122;BMP280;75480;52.260;20.916;2024-03-02T06:50:24;100002.53;;;8.05
85122;BMP280;75480;52.260;20.916;2024-03-02T06:51:54;99992.00;;;7.89
85122;BMP280;75480;52.260;20.916;2024-03-02T06:53:26;100009.53;;;8.06
85122;BMP280;75480;52.260;20.916;2024-03-02T06:54:56;100006.13;;;8.11
85122;BMP280;75480;52.260;20.916;2024-03-02T06:56:27;99999.88;;;8.10
85122;BMP280;75480;52.260;20.916;2024-03-02T06:57:57;100001.56;;;8.08
85122;BMP280;75480;52.260;20.916;2024-03-02T06:59:28;100009.25;;;8.19
85122;BMP280;75480;52.260;20.916;2024-03-02T07:00:59;100003.38;;;8.11
85122;BMP280;75480;52.260;20.916;2024-03-02T07:02:30;100008.28;;;8.07
85122;BMP280;75480;52.260;20.916;2024-03-02T07:04:01;100015.78;;;8.06
85122;BMP280;75480;52.260;20.916;2024-03-02T07:05:32;100007.06;;;8.08
85122;BMP280;75480;52.260;20.916;2024-03-02T07:07:03;100005.06;;;8.08
85122;BMP280;75480;52.260;20.916;2024-03-02T07:08:33;99994.38;;;8.10
85122;BMP280;75480;52.260;20.916;2024-03-02T07:10:05;100013.31;;;8.08
85122;BMP280;75480;52.260;20.916;2024-03-02T07:11:35;100006.13;;;8.11
85122;BMP280;75480;52.260;20.916;2024-03-02T07:13:06;100007.06;;;8.23
85122;BMP280;75480;52.260;20.916;2024-03-02T07:14:37;100000.53;;;8.20
85122;BMP280;75480;52.260;20.916;2024-03-02T07:16:26;100007.72;;;8.18
85122;BMP280;75480;52.260;20.916;2024-03-02T07:18:00;100009.72;;;8.17
85122;BMP280;75480;52.260;20.916;2024-03-02T07:19:31;100001.00;;;8.19
85122;BMP280;75480;52.260;20.916;2024-03-02T07:21:01;100004.69;;;8.16
85122;BMP280;75480;52.260;20.916;2024-03-02T07:22:32;99998.53;;;8.06
85122;BMP280;75480;52.260;20.916;2024-03-02T07:24:04;100010.19;;;8.16
85122;BMP280;75480;52.260;20.916;2024-03-02T07:25:34;100012.00;;;8.19
85122;BMP280;75480;52.260;20.916;2024-03-02T07:27:05;100014.25;;;8.20
85122;BMP280;75480;52.260;20.916;2024-03-02T07:28:36;100018.44;;;8.16
85122;BMP280;75480;52.260;20.916;2024-03-02T07:30:07;100013.22;;;8.18
85122;BMP280;75480;52.260;20.916;2024-03-02T07:31:38;100021.66;;;8.14
85122;BMP280;75480;52.260;20.916;2024-03-02T07:33:08;100020.22;;;8.19
85122;BMP280;75480;52.260;20.916;2024-03-02T07:34:39;100019.00;;;8.20
85122;BMP280;75480;52.260;20.916;2024-03-02T07:36:10;100010.84;;;8.25
85122;BMP280;75480;52.260;20.916;2024-03-02T07:37:43;100021.09;;;8.25
85122;BMP280;75480;52.260;20.916;2024-03-02T07:39:14;100027.91;;;8.29
85122;BMP280;75480;52.260;20.916;2024-03-02T07:40:45;100023.63;;;8.28
85122;BMP280;75480;52.260;20.916;2024-03-02T07:42:16;100018.91;;;8.29
85122;BMP280;75480;52.260;20.916;2024-03-02T07:43:47;100018.53;;;8.21
85122;BMP280;75480;52.260;20.916;2024-03-02T07:45:17;100015.88;;;8.27
85122;BMP280;75480;52.260;20.916;2024-03-02T07:46:48;100011.91;;;8.28
85122;BMP280;75480;52.260;20.916;2024-03-02T07:48:22;100012.00;;;8.19
85122;BMP280;75480;52.260;20.916;2024-03-02T07:49:53;100022.03;;;8.22
85122;BMP280;75480;52.260;20.916;2024-03-02T07:51:23;100023.81;;;8.25
85122;BMP280;75480;52.260;20.916;2024-03-02T07:52:54;100021.75;;;8.20
85122;BMP280;75480;52.260;20.916;2024-03-02T07:54:25;100034.81;;;8.25
85122;BMP280;75480;52.260;20.916;2024-03-02T07:55:56;100029.41;;;8.30
85122;BMP280;75480;52.260;20.916;2024-03-02T07:57:32;100031.97;;;8.34
85122;BMP280;75480;52.260;20.916;2024-03-02T07:59:03;100019.19;;;8.31
85122;BMP280;75480;52.260;20.916;2024-03-02T08:00:34;100026.84;;;8.27
85122;BMP280;75480;52.260;20.916;2024-03-02T08:02:06;100025.16;;;8.29
85122;BMP280;75480;52.260;20.916;2024-03-02T08:03:37;100039.06;;;8.26
85122;BMP280;75480;52.260;20.916;2024-03-02T08:05:08;100040.41;;;8.30
85122;BMP280;75480;52.260;20.916;2024-03-02T08:06:38;100042.47;;;8.35
85122;BMP280;75480;52.260;20.916;2024-03-02T08:08:09;100045.50;;;8.37
85122;BMP280;75480;52.260;20.916;2024-03-02T08:09:40;100057.53;;;8.40
85122;BMP280;75480;52.260;20.916;2024-03-02T08:11:10;100049.53;;;8.51
85122;BMP280;75480;52.260;20.916;2024-03-02T08:12:41;100056.06;;;8.54
85122;BMP280;75480;52.260;20.916;2024-03-02T08:14:12;100044.41;;;8.59
85122;BMP280;75480;52.260;20.916;2024-03-02T08:15:42;100050.72;;;8.65
85122;BMP280;75480;52.260;20.916;2024-03-02T08:17:13;100046.25;;;8.67
85122;BMP280;75480;52.260;20.916;2024-03-02T08:18:44;100046.84;;;8.71
85122;BMP280;75480;52.260;20.916;2024-03-02T08:20:14;100035.50;;;8.64
85122;BMP280;75480;52.260;20.916;2024-03-02T08:21:45;100045.88;;;8.74
85122;BMP280;75480;52.260;20.916;2024-03-02T08:23:17;100043.50;;;8.67
85122;BMP280;75480;52.260;20.916;2024-03-02T08:24:47;100046.38;;;8.73
85122;BMP280;75480;52.260;20.916;2024-03-02T08:26:18;100051.47;;;8.65
85122;BMP280;75480;52.260;20.916;2024-03-02T08:27:48;100039.06;;;8.55
85122;BMP280;75480;52.260;20.916;2024-03-02T08:29:19;100033.41;;;8.59
85122;BMP280;75480;52.260;20.916;2024-03-02T08:30:50;100049.44;;;8.60
85122;BMP280;75480;52.260;20.916;2024-03-02T08:32:20;100041.34;;;8.57
85122;BMP280;75480;52.260;20.916;2024-03-02T08:33:51;100051.69;;;8.62
85122;BMP280;75480;52.260;20.916;2024-03-02T08:35:22;100030.47;;;8.62
85122;BMP280;75480;52.260;20.916;2024-03-02T08:36:53;100032.75;;;8.64
85122;BMP280;75480;52.260;20.916;2024-03-02T08:38:24;100048.91;;;8.76
85122;BMP280;75480;52.260;20.916;2024-03-02T08:39:55;100048.16;;;8.76
85122;BMP280;75480;52.260;20.916;2024-03-02T08:41:25;100045.63;;;8.72
85122;BMP280;75480;52.260;20.916;2024-03-02T08:42:56;100052.72;;;8.79
85122;BMP280;75480;52.260;20.916;2024-03-02T08:44:27;100047.22;;;8.79
85122;BMP280;75480;52.260;20.916;2024-03-02T08:45:58;100051.22;;;8.78